createdAt,value
2023-05-22T00:00:02.406Z,85741.75
2023-05-22T00:02:28.677Z,85737.66
2023-05-22T00:04:55.030Z,85738.31
2023-05-22T00:07:21.181Z,85738.50
2023-05-22T00:09:47.421Z,85744.13
2023-05-22T00:12:13.596Z,85736.09
2023-05-22T00:14:39.760Z,85741.94
2023-05-22T00:17:05.928Z,85734.13
2023-05-22T00:19:32.215Z,85735.44
2023-05-22T00:21:58.400Z,85724.28
2023-05-22T00:24:24.576Z,85723.69
2023-05-22T00:26:50.754Z,85728.38
2023-05-22T00:29:16.898Z,85721.34
2023-05-22T00:31:43.035Z,85726.75
2023-05-22T00:34:09.227Z,85719.47
2023-05-22T00:36:35.380Z,85719.72
2023-05-22T00:39:01.574Z,85720.78
2023-05-22T00:41:27.707Z,85715.75
2023-05-22T00:43:53.832Z,85721.31
2023-05-22T00:46:20.018Z,85715.59
2023-05-22T00:48:46.216Z,85717.94
2023-05-22T00:51:12.349Z,85723.41
2023-05-22T00:53:38.489Z,85716.44
2023-05-22T00:56:04.628Z,85717.63
2023-05-22T00:58:30.750Z,85718.09
2023-05-22T01:00:56.900Z,85727.47
2023-05-22T01:03:23.127Z,85723.13
2023-05-22T01:05:49.335Z,85715.94
2023-05-22T01:08:15.594Z,85714.75
2023-05-22T01:10:41.982Z,85716.31
2023-05-22T01:13:08.283Z,85715.28
2023-05-22T01:15:34.438Z,85711.03
2023-05-22T01:18:00.626Z,85721.31
2023-05-22T01:20:26.816Z,85712.59
2023-05-22T01:22:52.950Z,85713.69
2023-05-22T01:25:19.126Z,85716.78
2023-05-22T01:27:45.259Z,85717.81
2023-05-22T01:30:11.408Z,85707.91
2023-05-22T01:32:37.596Z,85704.63
2023-05-22T01:35:03.815Z,85705.84
2023-05-22T01:37:29.972Z,85706.41
2023-05-22T01:39:56.193Z,85705.69
2023-05-22T01:42:22.494Z,85704.00
2023-05-22T01:44:48.649Z,85710.50
2023-05-22T01:47:14.793Z,85703.09
2023-05-22T01:49:40.959Z,85705.28
2023-05-22T01:52:07.105Z,85703.72
2023-05-22T01:54:33.248Z,85707.91
2023-05-22T01:56:59.401Z,85706.34
2023-05-22T01:59:25.584Z,85705.97
2023-05-22T02:01:51.782Z,85706.09
2023-05-22T02:04:17.970Z,85707.69
2023-05-22T02:06:44.109Z,85712.63
2023-05-22T02:09:10.237Z,85727.47
2023-05-22T02:11:36.708Z,85721.50
2023-05-22T02:14:02.864Z,85719.53
2023-05-22T02:16:29.051Z,85727.59
2023-05-22T02:18:55.253Z,85729.19
2023-05-22T02:21:21.440Z,85726.16
2023-05-22T02:23:47.590Z,85728.63
2023-05-22T02:26:13.716Z,85723.00
2023-05-22T02:28:39.891Z,85724.53
2023-05-22T02:31:06.079Z,85727.38
2023-05-22T02:33:32.251Z,85727.72
2023-05-22T02:35:58.386Z,85726.25
2023-05-22T02:38:24.534Z,85724.38
2023-05-22T02:40:50.701Z,85723.06
2023-05-22T02:43:16.865Z,85725.19
2023-05-22T02:45:42.994Z,85729.47
2023-05-22T02:48:09.162Z,85729.22
2023-05-22T02:50:35.397Z,85721.59
2023-05-22T02:53:02.613Z,85724.47
2023-05-22T02:55:28.756Z,85716.97
2023-05-22T02:57:54.898Z,85719.84
2023-05-22T03:00:21.078Z,85729.28
2023-05-22T03:02:47.300Z,85725.72
2023-05-22T03:05:13.556Z,85723.88
2023-05-22T03:07:39.741Z,85726.50
2023-05-22T03:10:05.986Z,85726.88
2023-05-22T03:12:32.156Z,85727.56
2023-05-22T03:14:58.288Z,85719.16
2023-05-22T03:17:24.465Z,85719.69
2023-05-22T03:19:50.693Z,85727.22
2023-05-22T03:22:16.857Z,85727.13
2023-05-22T03:24:42.999Z,85714.63
2023-05-22T03:27:09.137Z,85715.19
2023-05-22T03:29:35.291Z,85729.25
2023-05-22T03:32:01.448Z,85721.97
2023-05-22T03:34:27.597Z,85718.31
2023-05-22T03:36:53.743Z,85726.31
2023-05-22T03:39:19.885Z,85722.56
2023-05-22T03:41:46.041Z,85717.03
2023-05-22T03:44:12.183Z,85715.63
2023-05-22T03:46:38.315Z,85721.00
2023-05-22T03:49:04.462Z,85724.88
2023-05-22T03:51:30.612Z,85724.44
2023-05-22T03:53:56.742Z,85716.66
2023-05-22T03:56:22.894Z,85721.63
2023-05-22T03:58:49.050Z,85721.09
2023-05-22T04:01:15.183Z,85719.88
2023-05-22T04:03:41.473Z,85718.66
2023-05-22T04:06:07.851Z,85718.97
2023-05-22T04:08:33.998Z,85716.22
2023-05-22T04:11:00.146Z,85708.97
2023-05-22T04:13:26.330Z,85705.63
2023-05-22T04:15:52.534Z,85712.38
2023-05-22T04:18:18.700Z,85703.81
2023-05-22T04:20:44.842Z,85712.78
2023-05-22T04:23:10.980Z,85713.00
2023-05-22T04:25:37.101Z,85712.75
2023-05-22T04:28:03.269Z,85714.28
2023-05-22T04:30:29.467Z,85716.09
2023-05-22T04:32:55.698Z,85719.66
2023-05-22T04:35:21.882Z,85723.09
2023-05-22T04:37:48.067Z,85719.22
2023-05-22T04:40:14.205Z,85713.53
2023-05-22T04:42:40.380Z,85718.69
2023-05-22T04:45:06.538Z,85718.09
2023-05-22T04:47:32.745Z,85722.38
2023-05-22T04:49:58.940Z,85714.63
2023-05-22T04:52:25.085Z,85723.91
2023-05-22T04:54:51.254Z,85724.13
2023-05-22T04:57:17.418Z,85722.94
2023-05-22T04:59:43.548Z,85729.38
2023-05-22T05:02:09.744Z,85721.34
2023-05-22T05:04:35.908Z,85724.97
2023-05-22T05:07:02.082Z,85724.91
2023-05-22T05:09:28.229Z,85730.47
2023-05-22T05:11:54.365Z,85730.91
2023-05-22T05:14:20.540Z,85730.69
2023-05-22T05:16:46.759Z,85727.91
2023-05-22T05:19:12.994Z,85730.34
2023-05-22T05:21:39.168Z,85736.59
2023-05-22T05:24:05.329Z,85731.88
2023-05-22T05:26:31.476Z,85726.28
2023-05-22T05:28:57.627Z,85732.16
2023-05-22T05:31:23.830Z,85730.91
2023-05-22T05:33:50.048Z,85738.34
2023-05-22T05:36:16.207Z,85732.03
2023-05-22T05:38:42.355Z,85737.44
2023-05-22T05:41:08.504Z,85727.50
2023-05-22T05:43:34.640Z,85733.25
2023-05-22T05:46:00.832Z,85731.47
2023-05-22T05:48:26.973Z,85726.06
2023-05-22T05:50:53.121Z,85742.69
2023-05-22T05:53:19.296Z,85742.53
2023-05-22T05:55:45.447Z,85738.84
2023-05-22T05:58:11.642Z,85744.25
2023-05-22T06:00:37.912Z,85741.00
2023-05-22T06:03:04.338Z,85743.91
2023-05-22T06:05:30.677Z,85739.75
2023-05-22T06:07:56.920Z,85740.38
2023-05-22T06:10:23.093Z,85740.09
2023-05-22T06:12:49.254Z,85742.50
2023-05-22T06:15:15.404Z,85741.84
2023-05-22T06:17:41.582Z,85745.53
2023-05-22T06:20:07.753Z,85744.25
2023-05-22T06:22:33.911Z,85750.97
2023-05-22T06:25:00.121Z,85747.09
2023-05-22T06:27:26.332Z,85747.31
2023-05-22T06:29:52.489Z,85751.16
2023-05-22T06:32:18.706Z,85737.28
2023-05-22T06:34:44.953Z,85747.91
2023-05-22T06:37:11.111Z,85742.69
2023-05-22T06:39:37.250Z,85741.66
2023-05-22T06:42:03.406Z,85733.91
2023-05-22T06:44:29.603Z,85732.03
2023-05-22T06:46:55.752Z,85727.34
2023-05-22T06:49:21.910Z,85723.59
2023-05-22T06:51:48.045Z,85726.00
2023-05-22T06:54:14.227Z,85719.66
2023-05-22T06:56:40.362Z,85716.84
2023-05-22T06:59:06.578Z,85719.91
2023-05-22T07:01:33.961Z,85719.44
2023-05-22T07:04:00.123Z,85708.72
2023-05-22T07:06:26.260Z,85712.97
2023-05-22T07:08:52.416Z,85713.72
2023-05-22T07:11:18.553Z,85702.44
2023-05-22T07:13:44.700Z,85703.66
2023-05-22T07:16:10.914Z,85697.66
2023-05-22T07:18:37.073Z,85710.41
2023-05-22T07:21:03.218Z,85709.50
2023-05-22T07:23:29.361Z,85706.16
2023-05-22T07:25:55.537Z,85712.88
2023-05-22T07:28:21.736Z,85701.19
2023-05-22T07:30:47.920Z,85712.66
2023-05-22T07:33:14.113Z,85707.75
2023-05-22T07:35:40.402Z,85709.53
2023-05-22T07:38:06.544Z,85712.69
2023-05-22T07:40:32.686Z,85711.09
2023-05-22T07:42:59.083Z,85707.91
2023-05-22T07:45:25.212Z,85705.31
2023-05-22T07:47:52.816Z,85709.13
2023-05-22T07:50:20.280Z,85705.84
2023-05-22T07:52:46.422Z,85699.50
2023-05-22T07:55:12.581Z,85703.16
2023-05-22T07:57:38.841Z,85710.28
2023-05-22T08:00:05.010Z,85700.34
2023-05-22T08:02:31.257Z,85694.88
2023-05-22T08:04:57.604Z,85696.28
2023-05-22T08:07:23.839Z,85693.47
2023-05-22T08:09:50.144Z,85693.81
2023-05-22T08:12:16.297Z,85687.63
2023-05-22T08:14:42.433Z,85690.44
2023-05-22T08:17:08.629Z,85683.13
2023-05-22T08:19:35.212Z,85678.53
2023-05-22T08:22:01.456Z,85679.88
2023-05-22T08:24:27.636Z,85682.56
2023-05-22T08:26:53.830Z,85679.81
2023-05-22T08:29:20.001Z,85674.56
2023-05-22T08:31:46.178Z,85677.69
2023-05-22T08:34:12.348Z,85673.94
2023-05-22T08:36:38.482Z,85665.13
2023-05-22T08:39:04.656Z,85671.03
2023-05-22T08:41:30.829Z,85671.41
2023-05-22T08:43:56.980Z,85668.13
2023-05-22T08:46:23.162Z,85672.69
2023-05-22T08:48:49.345Z,85664.69
2023-05-22T08:51:15.490Z,85662.47
2023-05-22T08:53:41.689Z,85662.91
2023-05-22T08:56:07.873Z,85665.41
2023-05-22T08:58:34.054Z,85659.56
2023-05-22T09:01:00.305Z,85663.06
2023-05-22T09:03:26.612Z,85667.75
2023-05-22T09:05:52.884Z,85660.41
2023-05-22T09:08:20.971Z,85656.44
2023-05-22T09:10:47.543Z,85665.97
2023-05-22T09:13:13.744Z,85654.91
2023-05-22T09:15:39.891Z,85664.19
2023-05-22T09:18:06.137Z,85660.59
2023-05-22T09:20:32.426Z,85657.97
2023-05-22T09:22:58.672Z,85658.22
2023-05-22T09:25:24.836Z,85658.47
2023-05-22T09:27:50.979Z,85658.44
2023-05-22T09:30:17.129Z,85651.78
2023-05-22T09:32:43.342Z,85651.47
2023-05-22T09:35:09.593Z,85650.13
2023-05-22T09:37:35.751Z,85660.97
2023-05-22T09:40:01.941Z,85650.47
2023-05-22T09:42:28.068Z,85658.31
2023-05-22T09:44:54.216Z,85654.38
2023-05-22T09:47:20.422Z,85658.44
2023-05-22T09:49:46.611Z,85659.16
2023-05-22T09:52:12.882Z,85647.06
2023-05-22T09:54:39.069Z,85647.69
2023-05-22T09:57:05.226Z,85652.03
2023-05-22T09:59:31.384Z,85650.78
2023-05-22T10:01:57.664Z,85648.47
2023-05-22T10:04:24.124Z,85647.97
2023-05-22T10:06:50.371Z,85643.66
2023-05-22T10:09:19.014Z,85643.38
2023-05-22T10:11:45.733Z,85637.03
2023-05-22T10:14:11.872Z,85638.03
2023-05-22T10:16:38.300Z,85635.47
2023-05-22T10:19:04.595Z,85639.31
2023-05-22T10:21:30.731Z,85636.53
2023-05-22T10:23:56.906Z,85627.91
2023-05-22T10:26:23.071Z,85637.88
2023-05-22T10:28:49.219Z,85635.78
2023-05-22T10:31:15.381Z,85640.53
2023-05-22T10:33:41.551Z,85628.34
2023-05-22T10:36:07.779Z,85635.63
2023-05-22T10:38:33.986Z,85630.72
2023-05-22T10:41:00.195Z,85635.09
2023-05-22T10:43:26.332Z,85629.75
2023-05-22T10:45:52.500Z,85637.56
2023-05-22T10:48:18.654Z,85635.47
2023-05-22T10:50:44.795Z,85630.34
2023-05-22T10:53:10.933Z,85636.94
2023-05-22T10:55:37.088Z,85624.81
2023-05-22T10:58:05.042Z,85632.13
2023-05-22T11:00:31.396Z,85624.13
2023-05-22T11:03:03.359Z,85628.88
2023-05-22T11:05:36.022Z,85626.34
2023-05-22T11:08:02.290Z,85619.63
2023-05-22T11:10:28.687Z,85621.28
2023-05-22T11:12:54.855Z,85614.47
2023-05-22T11:15:21.013Z,85610.69
2023-05-22T11:17:47.177Z,85611.34
2023-05-22T11:20:13.409Z,85609.66
2023-05-22T11:22:39.715Z,85613.59
2023-05-22T11:25:05.884Z,85617.03
2023-05-22T11:27:32.043Z,85612.72
2023-05-22T11:29:58.206Z,85606.94
2023-05-22T11:32:24.370Z,85613.78
2023-05-22T11:34:50.643Z,85595.19
2023-05-22T11:37:16.867Z,85600.56
2023-05-22T11:39:43.020Z,85603.19
2023-05-22T11:42:09.158Z,85590.69
2023-05-22T11:44:35.320Z,85594.69
2023-05-22T11:47:03.511Z,85594.03
2023-05-22T11:49:29.660Z,85594.13
2023-05-22T11:51:55.801Z,85587.78
2023-05-22T11:54:21.929Z,85590.84
2023-05-22T11:56:48.101Z,85600.25
2023-05-22T11:59:14.267Z,85595.72
2023-05-22T12:01:40.411Z,85592.59
2023-05-22T12:04:06.752Z,85588.28
2023-05-22T12:06:33.040Z,85584.84
2023-05-22T12:08:59.274Z,85579.50
2023-05-22T12:11:25.444Z,85589.91
2023-05-22T12:13:51.670Z,85576.78
2023-05-22T12:16:17.828Z,85581.75
2023-05-22T12:18:44.013Z,85578.25
2023-05-22T12:21:10.185Z,85571.50
2023-05-22T12:23:36.313Z,85577.16
2023-05-22T12:26:02.454Z,85570.09
2023-05-22T12:28:28.620Z,85578.56
2023-05-22T12:30:54.791Z,85573.22
2023-05-22T12:33:20.948Z,85581.78
2023-05-22T12:35:47.094Z,85583.72
2023-05-22T12:38:13.263Z,85580.09
2023-05-22T12:40:39.527Z,85580.69
2023-05-22T12:43:05.873Z,85582.06
2023-05-22T12:45:32.053Z,85582.69
2023-05-22T12:47:58.261Z,85587.13
2023-05-22T12:50:24.487Z,85593.16
2023-05-22T12:52:50.640Z,85585.38
2023-05-22T12:55:16.808Z,85586.09
2023-05-22T12:57:42.990Z,85578.63
2023-05-22T13:00:09.122Z,85575.38
2023-05-22T13:02:35.320Z,85577.28
2023-05-22T13:05:01.591Z,85576.78
2023-05-22T13:07:27.811Z,85579.63
2023-05-22T13:09:53.949Z,85572.63
2023-05-22T13:12:20.150Z,85570.72
2023-05-22T13:14:46.336Z,85567.66
2023-05-22T13:17:12.510Z,85573.34
2023-05-22T13:19:38.748Z,85573.53
2023-05-22T13:22:04.943Z,85569.09
2023-05-22T13:24:31.117Z,85572.25
2023-05-22T13:26:57.250Z,85572.56
2023-05-22T13:29:23.465Z,85561.16
2023-05-22T13:31:49.658Z,85558.84
2023-05-22T13:34:15.966Z,85559.16
2023-05-22T13:36:42.240Z,85543.66
2023-05-22T13:39:08.411Z,85550.47
2023-05-22T13:41:34.550Z,85548.78
2023-05-22T13:44:00.730Z,85556.94
2023-05-22T13:46:26.908Z,85548.56
2023-05-22T13:48:53.276Z,85548.41
2023-05-22T13:51:19.430Z,85546.84
2023-05-22T13:53:45.580Z,85539.84
2023-05-22T13:56:11.742Z,85540.59
2023-05-22T13:58:37.944Z,85539.78
2023-05-22T14:01:04.130Z,85542.94
2023-05-22T14:03:30.486Z,85544.44
2023-05-22T14:05:56.662Z,85530.25
2023-05-22T14:08:22.853Z,85537.84
2023-05-22T14:10:49.003Z,85541.47
2023-05-22T14:13:15.148Z,85532.00
2023-05-22T14:15:41.408Z,85538.44
2023-05-22T14:18:07.677Z,85532.63
2023-05-22T14:20:33.889Z,85542.81
2023-05-22T14:23:00.040Z,85539.84
2023-05-22T14:25:26.321Z,85538.81
2023-05-22T14:27:52.532Z,85536.44
2023-05-22T14:30:18.692Z,85542.19
2023-05-22T14:32:44.934Z,85540.41
2023-05-22T14:35:11.096Z,85532.72
2023-05-22T14:37:37.234Z,85533.38
2023-05-22T14:40:03.392Z,85539.91
2023-05-22T14:42:29.587Z,85528.66
2023-05-22T14:44:55.745Z,85525.47
2023-05-22T14:47:21.887Z,85532.75
2023-05-22T14:49:48.029Z,85533.97
2023-05-22T14:52:14.204Z,85536.81
2023-05-22T14:54:40.351Z,85532.56
2023-05-22T14:57:06.536Z,85525.13
2023-05-22T14:59:32.708Z,85526.50
2023-05-22T15:01:58.857Z,85525.66
2023-05-22T15:04:25.109Z,85519.41
2023-05-22T15:06:51.294Z,85518.81
2023-05-22T15:09:17.552Z,85520.63
2023-05-22T15:11:43.709Z,85521.72
2023-05-22T15:14:09.881Z,85520.19
2023-05-22T15:16:36.061Z,85516.28
2023-05-22T15:19:02.354Z,85517.13
2023-05-22T15:21:28.809Z,85501.28
2023-05-22T15:23:54.969Z,85502.59
2023-05-22T15:26:21.098Z,85499.50
2023-05-22T15:28:47.239Z,85501.25
2023-05-22T15:31:13.400Z,85501.75
2023-05-22T15:33:39.532Z,85501.19
2023-05-22T15:36:05.683Z,85503.44
2023-05-22T15:38:31.814Z,85505.03
2023-05-22T15:40:57.963Z,85503.31
2023-05-22T15:43:25.991Z,85502.75
2023-05-22T15:45:52.249Z,85500.78
2023-05-22T15:48:18.438Z,85506.78
2023-05-22T15:50:44.574Z,85495.41
2023-05-22T15:53:10.728Z,85497.50
2023-05-22T15:55:36.868Z,85498.47
2023-05-22T15:58:02.992Z,85497.38
2023-05-22T16:00:29.132Z,85492.69
2023-05-22T16:02:55.405Z,85498.75
2023-05-22T16:05:21.617Z,85501.75
2023-05-22T16:07:47.770Z,85503.78
2023-05-22T16:10:13.909Z,85504.47
2023-05-22T16:12:40.070Z,85508.66
2023-05-22T16:15:07.126Z,85513.44
2023-05-22T16:17:33.364Z,85512.03
2023-05-22T16:19:59.523Z,85525.25
2023-05-22T16:22:32.975Z,85523.41
2023-05-22T16:25:06.718Z,85519.63
2023-05-22T16:27:32.880Z,85525.81
2023-05-22T16:29:59.007Z,85524.16
2023-05-22T16:32:25.180Z,85527.06
2023-05-22T16:34:51.335Z,85523.44
2023-05-22T16:37:17.474Z,85518.78
2023-05-22T16:39:43.602Z,85513.88
2023-05-22T16:42:09.756Z,85513.47
2023-05-22T16:44:35.934Z,85519.94
2023-05-22T16:47:02.103Z,85514.03
2023-05-22T16:49:28.298Z,85512.59
2023-05-22T16:51:54.453Z,85513.72
2023-05-22T16:54:20.607Z,85519.34
2023-05-22T16:56:46.766Z,85509.09
2023-05-22T16:59:12.916Z,85515.72
2023-05-22T17:01:39.514Z,85513.31
2023-05-22T17:04:05.778Z,85510.50
2023-05-22T17:06:32.021Z,85515.59
2023-05-22T17:08:58.202Z,85516.13
2023-05-22T17:11:24.404Z,85503.84
2023-05-22T17:13:50.563Z,85510.78
2023-05-22T17:16:16.768Z,85511.22
2023-05-22T17:18:42.965Z,85507.09
2023-05-22T17:21:09.221Z,85514.31
2023-05-22T17:23:35.422Z,85511.91
2023-05-22T17:26:01.585Z,85511.31
2023-05-22T17:28:27.722Z,85513.97
2023-05-22T17:30:53.850Z,85516.50
2023-05-22T17:33:20.044Z,85511.91
2023-05-22T17:35:46.223Z,85521.31
2023-05-22T17:38:12.390Z,85521.56
2023-05-22T17:40:44.807Z,85515.53
2023-05-22T17:43:12.307Z,85525.81
2023-05-22T17:45:38.505Z,85525.66
2023-05-22T17:48:04.731Z,85525.94
2023-05-22T17:50:30.946Z,85532.59
2023-05-22T17:52:57.102Z,85545.66
2023-05-22T17:55:23.273Z,85541.69
2023-05-22T17:57:49.526Z,85542.97
2023-05-22T18:00:15.670Z,85549.28
2023-05-22T18:02:41.911Z,85542.53
2023-05-22T18:05:08.094Z,85557.56
2023-05-22T18:07:34.241Z,85563.31
2023-05-22T18:10:00.392Z,85557.66
2023-05-22T18:12:31.780Z,85563.66
2023-05-22T18:14:58.477Z,85562.94
2023-05-22T18:17:24.659Z,85573.84
2023-05-22T18:19:50.843Z,85569.53
2023-05-22T18:22:17.038Z,85572.41
2023-05-22T18:24:43.202Z,85579.69
2023-05-22T18:27:09.356Z,85579.78
2023-05-22T18:29:35.510Z,85585.56
2023-05-22T18:32:01.754Z,85579.91
2023-05-22T18:34:27.939Z,85589.38
2023-05-22T18:36:54.078Z,85589.75
2023-05-22T18:39:20.235Z,85593.97
2023-05-22T18:41:46.394Z,85600.75
2023-05-22T18:44:12.530Z,85605.84
2023-05-22T18:46:38.730Z,85601.28
2023-05-22T18:49:04.899Z,85603.56
2023-05-22T18:51:31.027Z,85603.19
2023-05-22T18:53:57.179Z,85605.06
2023-05-22T18:56:23.311Z,85603.94
2023-05-22T18:58:49.461Z,85610.66
2023-05-22T19:01:15.654Z,85622.44
2023-05-22T19:03:41.884Z,85627.31
2023-05-22T19:06:08.010Z,85629.16
2023-05-22T19:08:34.177Z,85633.75
2023-05-22T19:11:00.331Z,85632.91
2023-05-22T19:13:26.520Z,85637.16
2023-05-22T19:15:52.688Z,85642.34
2023-05-22T19:18:18.831Z,85648.00
2023-05-22T19:20:44.966Z,85654.63
2023-05-22T19:23:11.107Z,85652.13
2023-05-22T19:25:37.274Z,85656.47
2023-05-22T19:28:03.438Z,85666.38
2023-05-22T19:30:29.609Z,85658.81
2023-05-22T19:32:55.926Z,85666.91
2023-05-22T19:35:22.177Z,85673.03
2023-05-22T19:37:48.319Z,85675.13
2023-05-22T19:40:14.482Z,85684.09
2023-05-22T19:42:40.689Z,85676.94
2023-05-22T19:45:06.854Z,85682.97
2023-05-22T19:47:33.044Z,85688.16
2023-05-22T19:49:59.210Z,85687.13
2023-05-22T19:52:25.351Z,85679.84
2023-05-22T19:54:51.525Z,85682.56
2023-05-22T19:57:17.687Z,85686.25
2023-05-22T19:59:43.817Z,85687.13
2023-05-22T20:02:10.099Z,85684.19
2023-05-22T20:04:36.303Z,85691.56
2023-05-22T20:07:02.479Z,85686.59
2023-05-22T20:09:28.638Z,85685.28
2023-05-22T20:11:54.776Z,85693.81
2023-05-22T20:14:20.939Z,85695.22
2023-05-22T20:16:47.160Z,85695.59
2023-05-22T20:19:13.438Z,85698.59
2023-05-22T20:21:39.594Z,85702.47
2023-05-22T20:24:05.911Z,85703.00
2023-05-22T20:26:32.209Z,85713.06
2023-05-22T20:28:58.378Z,85712.03
2023-05-22T20:31:24.598Z,85713.09
2023-05-22T20:33:50.792Z,85724.03
2023-05-22T20:36:16.973Z,85725.13
2023-05-22T20:38:43.121Z,85728.47
2023-05-22T20:41:09.828Z,85725.13
2023-05-22T20:43:36.172Z,85728.13
2023-05-22T20:46:02.436Z,85724.56
2023-05-22T20:48:28.731Z,85722.47
2023-05-22T20:50:54.860Z,85722.91
2023-05-22T20:53:21.036Z,85729.63
2023-05-22T20:55:47.199Z,85726.81
2023-05-22T20:58:13.345Z,85724.16
2023-05-22T21:00:39.649Z,85726.81
2023-05-22T21:03:06.018Z,85728.59
2023-05-22T21:05:32.183Z,85741.38
2023-05-22T21:07:58.338Z,85739.25
2023-05-22T21:10:24.541Z,85742.41
2023-05-22T21:12:50.684Z,85740.44
2023-05-22T21:15:16.854Z,85744.72
2023-05-22T21:17:43.075Z,85759.75
2023-05-22T21:20:09.259Z,85759.88
2023-05-22T21:22:35.453Z,85773.09
2023-05-22T21:25:01.632Z,85772.22
2023-05-22T21:27:27.830Z,85773.72
2023-05-22T21:29:53.998Z,85784.06
2023-05-22T21:32:20.171Z,85785.47
2023-05-22T21:34:46.318Z,85785.50
2023-05-22T21:37:12.477Z,85794.66
2023-05-22T21:39:38.611Z,85795.16
2023-05-22T21:42:04.763Z,85796.75
2023-05-22T21:44:30.902Z,85793.03
2023-05-22T21:46:57.151Z,85800.16
2023-05-22T21:49:23.378Z,85793.78
2023-05-22T21:51:49.531Z,85805.25
2023-05-22T21:54:15.699Z,85800.63
2023-05-22T21:56:41.855Z,85809.53
2023-05-22T21:59:08.038Z,85811.00
2023-05-22T22:01:34.223Z,85814.81
2023-05-22T22:04:00.383Z,85812.28
2023-05-22T22:06:26.534Z,85802.50
2023-05-22T22:08:52.693Z,85812.53
2023-05-22T22:11:18.849Z,85826.50
2023-05-22T22:13:44.992Z,85813.47
2023-05-22T22:16:11.183Z,85820.34
2023-05-22T22:18:37.333Z,85809.22
2023-05-22T22:21:03.531Z,85813.63
2023-05-22T22:23:29.690Z,85802.97
2023-05-22T22:25:55.857Z,85808.31
2023-05-22T22:28:22.034Z,85805.75
2023-05-22T22:30:48.174Z,85807.94
2023-05-22T22:33:14.309Z,85806.81
2023-05-22T22:35:40.733Z,85804.88
2023-05-22T22:38:07.108Z,85806.63
2023-05-22T22:40:33.251Z,85795.19
2023-05-22T22:42:59.412Z,85799.06
2023-05-22T22:45:25.600Z,85797.59
2023-05-22T22:47:51.806Z,85800.84
2023-05-22T22:50:17.983Z,85802.44
2023-05-22T22:52:44.117Z,85803.00
2023-05-22T22:55:10.329Z,85799.34
2023-05-22T22:57:36.571Z,85805.47
2023-05-22T23:00:02.736Z,85802.38
2023-05-22T23:02:28.966Z,85801.13
2023-05-22T23:04:55.297Z,85791.66
2023-05-22T23:07:21.517Z,85790.22
2023-05-22T23:09:47.680Z,85786.19
2023-05-22T23:12:13.814Z,85784.81
2023-05-22T23:14:39.989Z,85792.59
2023-05-22T23:17:06.140Z,85779.69
2023-05-22T23:19:32.363Z,85785.56
2023-05-22T23:21:58.573Z,85783.28
2023-05-22T23:24:24.731Z,85779.31
2023-05-22T23:26:50.901Z,85781.44
2023-05-22T23:29:17.066Z,85779.31
2023-05-22T23:31:43.237Z,85784.66
2023-05-22T23:34:09.438Z,85794.50
2023-05-22T23:36:35.608Z,85794.47
2023-05-22T23:39:01.757Z,85797.00
2023-05-22T23:41:27.912Z,85796.00
2023-05-22T23:43:54.091Z,85795.50
2023-05-22T23:46:20.296Z,85791.84
2023-05-22T23:48:46.572Z,85797.41
2023-05-22T23:51:12.705Z,85793.31
2023-05-22T23:53:38.866Z,85789.25
2023-05-22T23:56:05.023Z,85791.88
2023-05-22T23:58:31.191Z,85794.94
